Airfield :
LOGIN :

Register | Disclaimer

   EN    FR    IT 

 










Legend :    VFR   Marginal VFR   IFR   Intensive IFR   Very Intensive IFR
Visi :
Ceiling :
>= 8 km
>= 3000ft
5 to 8 km
1000 to 3000 ft
1500m to 5 km
500 to 1000 ft
800 to 1500m
200 to 500 ft
< 800m
< 200 ft
Symbols :   Thunderstorms  Fog  Heavy snow  Heavy precipitations  Wind > 20 kt
SIGMETs :     Misc.  Thunderstorms  Icing  Turbulence  Mountain Waves  Volcanic Ashes







- Airport Elevation : 247 ft
- IATA code : BLL


EKBI - Billund

CURRENT METAR :
  • 300050Z AUTO 16002KT 4900NDV BR OVC004/// 12/11 Q1011

EXPIRED METARs :
  • 300020Z AUTO 16001KT 4500NDV BR OVC004/// 12/11 Q1012
  • 292350Z AUTO 15001KT 4500NDV BR OVC004/// 12/11 Q1012
  • 292320Z AUTO 17003KT 4600NDV BR OVC004/// 12/11 Q1012
  • 292250Z AUTO 12001KT 4800NDV BR OVC004/// 12/11 Q1012
  • 292220Z AUTO 12001KT 5000NDV OVC005/// 12/11 Q1012

TAF TAF EKBI
Valid from the 30 at 00:00 until the 31 at 00:00 UTC


292258Z 3000/3024 27006KT 8000 BKN008
TEMPO 3000/3009 2500 BR BKN004
TEMPO 3009/3024 4000 -RADZ BR BKN010
No reported NOTAMs for that airfield.



MET'MAP, your aeronautical weather chart ! - Copyright ORBIFLY December 2007 - Disclaimer

ORBIFLY MET'MAP TEAM :

Programming & Development : Alexandra Zaïnal
Concept & Development : Baudouin d'Aumeries
Co-Development & Prog : Marc-Olivier Méhu
Technical & hardware support : Manuel Goepfert

Contact : metmap@orbifly.com




SOURCES & CREDITS :

   NOAA